createdAt,value
2023-04-03T00:01:21.361Z,61.30
2023-04-03T00:03:49.760Z,60.75
2023-04-03T00:06:18.172Z,60.38
2023-04-03T00:08:47.972Z,60.93
2023-04-03T00:11:17.366Z,60.45
2023-04-03T00:13:46.097Z,61.45
2023-04-03T00:16:14.852Z,61.64
2023-04-03T00:18:43.711Z,61.85
2023-04-03T00:21:15.023Z,62.03
2023-04-03T00:23:43.573Z,62.30
2023-04-03T00:26:13.423Z,62.36
2023-04-03T00:28:42.036Z,62.30
2023-04-03T00:31:10.601Z,62.47
2023-04-03T00:33:39.340Z,62.18
2023-04-03T00:36:10.209Z,61.64
2023-04-03T00:38:39.056Z,61.56
2023-04-03T00:41:07.603Z,61.88
2023-04-03T00:43:37.374Z,61.71
2023-04-03T00:46:06.008Z,61.51
2023-04-03T00:48:36.927Z,61.38
2023-04-03T00:51:07.991Z,61.79
2023-04-03T00:53:41.910Z,61.78
2023-04-03T00:56:13.160Z,62.25
2023-04-03T00:58:47.769Z,62.42
2023-04-03T01:01:21.143Z,62.33
2023-04-03T01:03:49.517Z,61.88
2023-04-03T01:06:21.571Z,61.06
2023-04-03T01:08:52.143Z,62.37
2023-04-03T01:11:22.104Z,62.70
2023-04-03T01:13:51.970Z,62.27
2023-04-03T01:16:20.852Z,62.44
2023-04-03T01:18:49.390Z,61.94
2023-04-03T01:21:52.644Z,61.77
2023-04-03T01:24:30.401Z,62.31
2023-04-03T01:26:58.761Z,62.50
2023-04-03T01:29:28.517Z,62.16
2023-04-03T01:31:59.486Z,61.55
2023-04-03T01:34:28.746Z,61.91
2023-04-03T01:36:57.316Z,61.29
2023-04-03T01:39:25.996Z,61.75
2023-04-03T01:41:54.489Z,61.99
2023-04-03T01:44:22.831Z,61.82
2023-04-03T01:46:51.083Z,61.77
2023-04-03T01:49:21.148Z,62.81
2023-04-03T01:51:49.478Z,62.78
2023-04-03T01:54:17.839Z,62.84
2023-04-03T01:56:46.097Z,63.01
2023-04-03T01:59:14.796Z,63.27
2023-04-03T02:01:43.202Z,63.22
2023-04-03T02:04:11.896Z,62.59
2023-04-03T02:06:41.769Z,63.41
2023-04-03T02:09:10.097Z,64.14
2023-04-03T02:11:38.619Z,64.34
2023-04-03T02:14:07.062Z,64.05
2023-04-03T02:16:35.426Z,63.75
2023-04-03T02:19:03.808Z,63.70
2023-04-03T02:21:32.117Z,63.51
2023-04-03T02:24:03.013Z,62.17
2023-04-03T02:26:31.338Z,61.88
2023-04-03T02:28:59.614Z,62.39
2023-04-03T02:31:28.402Z,61.96
2023-04-03T02:33:56.852Z,62.09
2023-04-03T02:36:25.298Z,62.62
2023-04-03T02:38:53.624Z,62.58
2023-04-03T02:41:23.467Z,63.41
2023-04-03T02:43:51.770Z,63.87
2023-04-03T02:46:20.249Z,64.00
2023-04-03T02:48:48.588Z,63.95
2023-04-03T02:51:16.920Z,64.24
2023-04-03T02:53:45.656Z,63.89
2023-04-03T02:56:14.036Z,63.87
2023-04-03T02:58:43.966Z,63.50
2023-04-03T03:01:12.540Z,63.04
2023-04-03T03:03:40.907Z,63.26
2023-04-03T03:06:11.673Z,63.54
2023-04-03T03:08:40.347Z,63.93
2023-04-03T03:11:09.420Z,63.54
2023-04-03T03:13:38.213Z,62.96
2023-04-03T03:16:09.242Z,62.71
2023-04-03T03:18:38.375Z,63.00
2023-04-03T03:21:07.305Z,63.39
2023-04-03T03:23:36.113Z,63.36
2023-04-03T03:26:06.982Z,62.78
2023-04-03T03:28:36.210Z,63.21
2023-04-03T03:31:05.030Z,63.03
2023-04-03T03:33:34.844Z,62.43
2023-04-03T03:36:03.288Z,63.03
2023-04-03T03:38:31.786Z,63.23
2023-04-03T03:41:00.131Z,63.22
2023-04-03T03:43:28.414Z,63.63
2023-04-03T03:45:57.033Z,63.11
2023-04-03T03:48:25.961Z,62.88
2023-04-03T03:50:55.810Z,62.01
2023-04-03T03:53:24.119Z,62.70
2023-04-03T03:55:52.454Z,62.30
2023-04-03T03:58:20.742Z,62.74
2023-04-03T04:00:49.390Z,63.03
2023-04-03T04:03:17.970Z,62.68
2023-04-03T04:05:46.643Z,62.44
2023-04-03T04:08:16.364Z,63.00
2023-04-03T04:10:44.692Z,63.51
2023-04-03T04:13:12.943Z,63.17
2023-04-03T04:15:41.373Z,62.89
2023-04-03T04:18:09.659Z,63.09
2023-04-03T04:20:38.474Z,62.47
2023-04-03T04:23:06.778Z,63.19
2023-04-03T04:25:36.936Z,62.70
2023-04-03T04:28:05.378Z,63.57
2023-04-03T04:30:33.741Z,64.00
2023-04-03T04:33:02.211Z,63.19
2023-04-03T04:35:30.579Z,63.43
2023-04-03T04:37:58.947Z,62.49
2023-04-03T04:40:27.350Z,63.47
2023-04-03T04:42:57.163Z,63.17
2023-04-03T04:45:25.630Z,62.85
2023-04-03T04:47:54.013Z,63.61
2023-04-03T04:50:22.365Z,63.39
2023-04-03T04:52:50.867Z,62.84
2023-04-03T04:55:19.419Z,62.81
2023-04-03T04:57:47.862Z,62.33
2023-04-03T05:00:18.895Z,63.29
2023-04-03T05:02:47.250Z,63.19
2023-04-03T05:05:16.034Z,63.19
2023-04-03T05:07:44.412Z,63.40
2023-04-03T05:10:12.742Z,62.70
2023-04-03T05:12:41.721Z,62.59
2023-04-03T05:15:11.488Z,62.72
2023-04-03T05:17:41.205Z,62.93
2023-04-03T05:20:10.306Z,63.27
2023-04-03T05:22:38.628Z,63.35
2023-04-03T05:25:08.344Z,62.69
2023-04-03T05:27:36.849Z,63.55
2023-04-03T05:30:06.010Z,64.18
2023-04-03T05:32:35.127Z,64.04
2023-04-03T05:35:05.535Z,64.22
2023-04-03T05:37:34.164Z,63.25
2023-04-03T05:40:02.549Z,62.12
2023-04-03T05:42:31.042Z,63.32
2023-04-03T05:44:59.361Z,63.46
2023-04-03T05:47:27.810Z,64.01
2023-04-03T05:49:56.116Z,64.49
2023-04-03T05:52:29.545Z,65.42
2023-04-03T05:54:58.219Z,63.43
2023-04-03T05:57:26.701Z,63.58
2023-04-03T05:59:55.287Z,64.04
2023-04-03T06:02:25.625Z,62.69
2023-04-03T06:04:54.354Z,62.33
2023-04-03T06:07:24.894Z,63.07
2023-04-03T06:09:54.650Z,62.57
2023-04-03T06:12:22.898Z,63.67
2023-04-03T06:14:52.263Z,63.45
2023-04-03T06:17:21.444Z,62.90
2023-04-03T06:19:50.765Z,62.84
2023-04-03T06:22:19.125Z,63.05
2023-04-03T06:24:47.730Z,62.76
2023-04-03T06:27:17.953Z,62.67
2023-04-03T06:29:46.793Z,63.21
2023-04-03T06:32:15.122Z,62.79
2023-04-03T06:34:43.861Z,62.62
2023-04-03T06:37:17.505Z,62.99
2023-04-03T06:39:46.350Z,63.45
2023-04-03T06:42:17.209Z,63.10
2023-04-03T06:44:45.910Z,63.33
2023-04-03T06:47:15.166Z,62.64
2023-04-03T06:49:44.167Z,62.84
2023-04-03T06:52:14.291Z,62.57
2023-04-03T06:54:42.976Z,61.75
2023-04-03T06:57:11.711Z,62.31
2023-04-03T06:59:41.843Z,61.57
2023-04-03T07:02:12.463Z,60.58
2023-04-03T07:04:41.156Z,58.80
2023-04-03T07:07:10.228Z,59.27
2023-04-03T07:09:38.660Z,60.49
2023-04-03T07:12:07.331Z,61.38
2023-04-03T07:14:35.709Z,61.25
2023-04-03T07:17:05.508Z,61.73
2023-04-03T07:19:34.005Z,61.62
2023-04-03T07:22:02.354Z,60.79
2023-04-03T07:24:30.674Z,59.59
2023-04-03T07:26:58.968Z,58.37
2023-04-03T07:29:27.544Z,59.02
2023-04-03T07:31:56.573Z,59.02
2023-04-03T07:34:26.460Z,58.26
2023-04-03T07:36:54.782Z,58.63
2023-04-03T07:39:23.030Z,58.66
2023-04-03T07:41:51.577Z,59.28
2023-04-03T07:44:19.956Z,58.44
2023-04-03T07:46:48.260Z,58.14
2023-04-03T07:49:17.991Z,57.81
2023-04-03T07:51:48.034Z,58.24
2023-04-03T07:54:16.426Z,59.19
2023-04-03T07:56:44.994Z,57.70
2023-04-03T07:59:13.625Z,57.71
2023-04-03T08:01:41.883Z,58.27
2023-04-03T08:04:10.556Z,58.82
2023-04-03T08:06:46.618Z,57.79
2023-04-03T08:09:17.594Z,58.62
2023-04-03T08:11:46.625Z,58.25
2023-04-03T08:14:19.689Z,58.95
2023-04-03T08:16:49.510Z,58.91
2023-04-03T08:19:26.113Z,59.15
2023-04-03T08:21:55.715Z,57.84
2023-04-03T08:24:25.559Z,57.00
2023-04-03T08:26:54.049Z,56.30
2023-04-03T08:29:22.419Z,56.45
2023-04-03T08:31:51.321Z,56.12
2023-04-03T08:34:20.292Z,55.29
2023-04-03T08:36:48.757Z,56.04
2023-04-03T08:39:17.041Z,55.86
2023-04-03T08:41:49.134Z,55.92
2023-04-03T08:44:27.203Z,55.97
2023-04-03T08:47:09.719Z,54.92
2023-04-03T08:49:48.299Z,54.96
2023-04-03T08:52:20.178Z,54.05
2023-04-03T08:54:53.658Z,54.43
2023-04-03T08:57:31.944Z,53.87
2023-04-03T09:00:03.973Z,49.81
2023-04-03T09:02:37.767Z,49.55
2023-04-03T09:05:14.910Z,48.79
2023-04-03T09:07:49.313Z,49.67
2023-04-03T09:10:22.016Z,49.57
2023-04-03T09:13:00.455Z,49.26
2023-04-03T09:15:38.466Z,49.36
2023-04-03T09:18:16.926Z,49.04
2023-04-03T09:20:52.467Z,47.68
2023-04-03T09:23:31.276Z,46.87
2023-04-03T09:26:06.254Z,47.32
2023-04-03T09:28:49.245Z,48.11
2023-04-03T09:31:25.109Z,48.34
2023-04-03T09:33:55.572Z,47.73
2023-04-03T09:36:46.720Z,46.48
2023-04-03T09:39:18.535Z,47.78
2023-04-03T09:42:00.241Z,48.50
2023-04-03T09:44:32.748Z,48.47
2023-04-03T09:47:01.550Z,47.36
2023-04-03T09:49:30.105Z,47.69
2023-04-03T09:51:58.411Z,48.99
2023-04-03T09:54:40.684Z,49.16
2023-04-03T09:57:13.161Z,47.50
2023-04-03T09:59:48.559Z,46.88
2023-04-03T10:02:34.716Z,47.16
2023-04-03T10:07:38.277Z,45.19
2023-04-03T10:10:24.994Z,45.37
2023-04-03T10:13:06.861Z,46.27
2023-04-03T10:15:42.510Z,44.17
2023-04-03T10:18:28.646Z,45.18
2023-04-03T10:21:02.607Z,44.29
2023-04-03T10:23:39.553Z,43.26
2023-04-03T10:26:17.002Z,44.29
2023-04-03T10:28:51.537Z,44.66
2023-04-03T10:31:28.170Z,45.11
2023-04-03T10:34:07.297Z,44.58
2023-04-03T10:36:41.473Z,44.44
2023-04-03T10:39:23.313Z,44.22
2023-04-03T10:42:15.330Z,43.30
2023-04-03T10:44:59.420Z,43.15
2023-04-03T10:47:37.294Z,43.77
2023-04-03T10:50:29.016Z,44.53
2023-04-03T10:53:03.016Z,44.10
2023-04-03T10:55:38.566Z,43.22
2023-04-03T10:58:08.703Z,44.44
2023-04-03T11:00:42.193Z,42.25
2023-04-03T11:03:16.809Z,41.84
2023-04-03T11:05:47.202Z,42.81
2023-04-03T11:08:27.525Z,42.76
2023-04-03T11:11:00.837Z,42.02
2023-04-03T11:13:35.738Z,43.64
2023-04-03T11:16:06.814Z,42.45
2023-04-03T11:18:42.229Z,42.48
2023-04-03T11:21:15.155Z,41.87
2023-04-03T11:23:49.643Z,41.35
2023-04-03T11:26:22.060Z,42.08
2023-04-03T11:28:55.836Z,43.30
2023-04-03T11:31:33.531Z,43.49
2023-04-03T11:34:16.030Z,42.00
2023-04-03T11:36:50.300Z,41.57
2023-04-03T11:39:26.260Z,41.20
2023-04-03T11:42:06.644Z,42.70
2023-04-03T11:44:41.178Z,42.26
2023-04-03T11:47:11.536Z,41.05
2023-04-03T11:50:01.072Z,42.04
2023-04-03T11:53:01.175Z,41.42
2023-04-03T11:56:00.988Z,42.57
2023-04-03T11:58:31.998Z,43.18
2023-04-03T12:01:07.178Z,42.78
2023-04-03T12:04:15.282Z,41.72
2023-04-03T12:07:19.118Z,42.50
2023-04-03T12:10:31.744Z,39.56
2023-04-03T12:13:05.173Z,40.57
2023-04-03T12:15:54.994Z,41.45
2023-04-03T12:18:59.732Z,40.13
2023-04-03T12:22:26.456Z,40.84
2023-04-03T12:24:56.250Z,41.63
2023-04-03T12:27:33.943Z,41.30
2023-04-03T12:30:19.385Z,41.44
2023-04-03T12:33:21.646Z,41.13
2023-04-03T12:36:03.938Z,40.67
2023-04-03T12:38:58.903Z,42.01
2023-04-03T12:41:39.874Z,42.13
2023-04-03T12:44:41.831Z,41.38
2023-04-03T12:47:29.751Z,41.73
2023-04-03T12:49:59.543Z,41.84
2023-04-03T12:52:43.516Z,40.59
2023-04-03T12:55:17.412Z,40.52
2023-04-03T12:57:47.605Z,41.05
2023-04-03T13:00:33.787Z,41.44
2023-04-03T13:03:03.691Z,41.79
2023-04-03T13:05:36.497Z,41.63
2023-04-03T13:08:08.706Z,40.61
2023-04-03T13:10:50.071Z,40.30
2023-04-03T13:13:19.995Z,40.94
2023-04-03T13:15:51.638Z,40.73
2023-04-03T13:18:34.283Z,39.64
2023-04-03T13:21:07.275Z,41.04
2023-04-03T13:23:39.364Z,41.75
2023-04-03T13:26:09.340Z,42.22
2023-04-03T13:28:41.833Z,41.90
2023-04-03T13:31:19.857Z,42.73
2023-04-03T13:33:58.855Z,42.33
2023-04-03T13:36:31.002Z,42.71
2023-04-03T13:39:07.035Z,42.55
2023-04-03T13:41:37.750Z,40.58
2023-04-03T13:44:28.938Z,41.62
2023-04-03T13:46:59.205Z,42.28
2023-04-03T13:49:35.179Z,41.40
2023-04-03T13:52:08.290Z,40.60
2023-04-03T13:54:39.662Z,40.55
2023-04-03T13:57:15.374Z,39.85
2023-04-03T13:59:45.585Z,40.32
2023-04-03T14:02:19.991Z,41.05
2023-04-03T14:05:01.176Z,39.37
2023-04-03T14:07:30.302Z,39.33
2023-04-03T14:09:58.967Z,39.97
2023-04-03T14:12:32.355Z,38.58
2023-04-03T14:15:07.653Z,39.09
2023-04-03T14:17:36.264Z,39.58
2023-04-03T14:20:05.449Z,38.73
2023-04-03T14:22:35.904Z,36.25
2023-04-03T14:25:04.707Z,36.83
2023-04-03T14:27:39.007Z,37.69
2023-04-03T14:30:15.876Z,38.21
2023-04-03T14:32:44.579Z,39.05
2023-04-03T14:35:13.117Z,39.61
2023-04-03T14:37:41.897Z,38.77
2023-04-03T14:40:15.423Z,37.60
2023-04-03T14:42:43.832Z,38.94
2023-04-03T14:45:15.179Z,37.69
2023-04-03T14:47:48.982Z,37.89
2023-04-03T14:50:20.435Z,38.61
2023-04-03T14:52:49.299Z,38.68
2023-04-03T14:55:20.890Z,38.86
2023-04-03T14:57:50.974Z,38.76
2023-04-03T15:00:23.360Z,39.92
2023-04-03T15:02:51.949Z,40.17
2023-04-03T15:05:20.793Z,39.90
2023-04-03T15:07:52.710Z,39.26
2023-04-03T15:10:23.285Z,38.57
2023-04-03T15:12:52.114Z,39.22
2023-04-03T15:15:24.244Z,38.87
2023-04-03T15:17:56.106Z,36.84
2023-04-03T15:20:27.544Z,38.16
2023-04-03T15:22:57.349Z,38.53
2023-04-03T15:25:26.538Z,39.29
2023-04-03T15:27:55.665Z,39.90
2023-04-03T15:30:25.547Z,40.13
2023-04-03T15:32:54.424Z,40.29
2023-04-03T15:35:23.304Z,39.40
2023-04-03T15:37:52.420Z,39.49
2023-04-03T15:40:21.072Z,39.86
2023-04-03T15:42:50.008Z,40.39
2023-04-03T15:45:19.348Z,40.91
2023-04-03T15:47:49.321Z,41.06
2023-04-03T15:50:17.749Z,40.65
2023-04-03T15:52:46.141Z,40.58
2023-04-03T15:55:14.421Z,41.10
2023-04-03T15:57:42.829Z,41.47
2023-04-03T16:00:12.517Z,40.57
2023-04-03T16:02:41.354Z,40.74
2023-04-03T16:05:12.429Z,39.35
2023-04-03T16:07:41.951Z,37.94
2023-04-03T16:10:12.708Z,39.01
2023-04-03T16:12:41.332Z,40.09
2023-04-03T16:15:10.938Z,39.32
2023-04-03T16:17:41.940Z,39.85
2023-04-03T16:20:14.094Z,40.36
2023-04-03T16:22:43.530Z,40.53
2023-04-03T16:25:13.280Z,39.99
2023-04-03T16:27:41.972Z,40.90
2023-04-03T16:30:11.899Z,41.18
2023-04-03T16:32:41.520Z,40.96
2023-04-03T16:35:12.132Z,41.29
2023-04-03T16:37:41.221Z,42.00
2023-04-03T16:40:11.285Z,41.98
2023-04-03T16:42:39.633Z,41.32
2023-04-03T16:45:09.336Z,41.81
2023-04-03T16:47:37.734Z,41.83
2023-04-03T16:50:07.033Z,40.64
2023-04-03T16:52:36.857Z,40.14
2023-04-03T16:55:05.665Z,40.23
2023-04-03T16:57:34.266Z,41.20
2023-04-03T17:00:02.498Z,41.35
2023-04-03T17:02:31.125Z,41.50
2023-04-03T17:04:59.749Z,40.89
2023-04-03T17:07:28.391Z,40.76
2023-04-03T17:09:58.530Z,41.33
2023-04-03T17:12:28.358Z,41.56
2023-04-03T17:14:57.446Z,41.66
2023-04-03T17:17:28.274Z,41.64
2023-04-03T17:19:57.328Z,41.33
2023-04-03T17:22:26.568Z,41.28
2023-04-03T17:24:54.853Z,41.56
2023-04-03T17:27:24.754Z,41.84
2023-04-03T17:29:53.102Z,42.20
2023-04-03T17:32:21.504Z,42.29
2023-04-03T17:34:50.500Z,42.57
2023-04-03T17:37:18.861Z,42.58
2023-04-03T17:39:47.735Z,42.54
2023-04-03T17:42:16.212Z,42.25
2023-04-03T17:44:46.002Z,42.70
2023-04-03T17:47:14.709Z,42.11
2023-04-03T17:49:43.181Z,42.27
2023-04-03T17:52:11.537Z,43.06
2023-04-03T17:54:39.820Z,43.07
2023-04-03T17:57:09.041Z,43.66
2023-04-03T17:59:37.457Z,43.77
2023-04-03T18:02:07.270Z,43.61
2023-04-03T18:04:35.607Z,43.97
2023-04-03T18:07:05.158Z,44.22
2023-04-03T18:09:35.116Z,43.87
2023-04-03T18:12:06.156Z,43.94
2023-04-03T18:14:37.348Z,43.79
2023-04-03T18:17:07.714Z,43.52
2023-04-03T18:19:37.506Z,44.08
2023-04-03T18:22:09.749Z,44.10
2023-04-03T18:24:38.533Z,43.99
2023-04-03T18:27:11.670Z,43.49
2023-04-03T18:29:42.844Z,43.12
2023-04-03T18:32:16.733Z,43.36
2023-04-03T18:34:45.182Z,43.06
2023-04-03T18:37:15.220Z,43.59
2023-04-03T18:39:44.070Z,43.54
2023-04-03T18:42:17.123Z,43.27
2023-04-03T18:44:50.408Z,44.06
2023-04-03T18:47:20.698Z,44.10
2023-04-03T18:49:49.124Z,44.03
2023-04-03T18:52:17.752Z,44.52
2023-04-03T18:54:46.440Z,44.88
2023-04-03T18:57:14.868Z,44.76
2023-04-03T18:59:43.268Z,44.52
2023-04-03T19:02:13.138Z,44.89
2023-04-03T19:04:43.180Z,44.75
2023-04-03T19:07:12.244Z,43.92
2023-04-03T19:09:41.338Z,44.48
2023-04-03T19:12:09.870Z,44.36
2023-04-03T19:14:38.361Z,44.48
2023-04-03T19:17:08.399Z,44.86
2023-04-03T19:19:37.028Z,44.70
2023-04-03T19:22:07.898Z,44.32
2023-04-03T19:24:36.589Z,44.20
2023-04-03T19:27:05.025Z,44.25
2023-04-03T19:29:33.312Z,44.55
2023-04-03T19:32:01.986Z,44.61
2023-04-03T19:34:30.255Z,44.39
2023-04-03T19:36:59.151Z,43.50
2023-04-03T19:39:31.065Z,43.44
2023-04-03T19:41:59.691Z,43.60
2023-04-03T19:44:28.260Z,43.84
2023-04-03T19:46:56.778Z,43.55
2023-04-03T19:49:25.158Z,43.54
2023-04-03T19:51:54.643Z,43.86
2023-04-03T19:54:23.760Z,43.47
2023-04-03T19:56:53.578Z,43.59
2023-04-03T19:59:22.042Z,43.74
2023-04-03T20:01:50.463Z,43.99
2023-04-03T20:04:18.968Z,44.09
2023-04-03T20:06:48.404Z,44.21
2023-04-03T20:09:23.462Z,44.31
2023-04-03T20:11:53.904Z,43.36
2023-04-03T20:14:22.522Z,43.49
2023-04-03T20:16:51.058Z,43.91
2023-04-03T20:19:19.662Z,43.45
2023-04-03T20:21:48.467Z,43.36
2023-04-03T20:24:17.811Z,43.86
2023-04-03T20:26:47.419Z,43.80
2023-04-03T20:29:17.906Z,43.33
2023-04-03T20:31:46.919Z,43.75
2023-04-03T20:34:17.052Z,43.78
2023-04-03T20:36:49.610Z,43.99
2023-04-03T20:39:19.649Z,43.67
2023-04-03T20:41:48.056Z,43.45
2023-04-03T20:44:20.280Z,43.78
2023-04-03T20:46:53.490Z,43.84
2023-04-03T20:49:23.444Z,43.96
2023-04-03T20:51:54.187Z,44.10
2023-04-03T20:54:24.271Z,43.98
2023-04-03T20:56:54.443Z,43.82
2023-04-03T20:59:25.971Z,43.99
2023-04-03T21:01:55.144Z,43.96
2023-04-03T21:04:30.585Z,43.30
2023-04-03T21:07:39.484Z,43.59
2023-04-03T21:10:46.262Z,43.24
2023-04-03T21:13:52.826Z,43.75
2023-04-03T21:16:24.723Z,43.94
2023-04-03T21:19:11.481Z,43.88
2023-04-03T21:21:41.748Z,44.03
2023-04-03T21:24:11.417Z,43.86
2023-04-03T21:26:41.579Z,44.06
2023-04-03T21:29:10.624Z,43.96
2023-04-03T21:31:49.984Z,44.26
2023-04-03T21:34:21.027Z,44.20
2023-04-03T21:36:50.713Z,43.94
2023-04-03T21:39:19.048Z,44.17
2023-04-03T21:41:47.412Z,44.10
2023-04-03T21:44:15.773Z,44.43
2023-04-03T21:46:44.501Z,44.52
2023-04-03T21:49:13.001Z,44.06
2023-04-03T21:51:43.318Z,43.41
2023-04-03T21:54:11.843Z,44.29
2023-04-03T21:56:40.207Z,44.38
2023-04-03T21:59:08.901Z,44.04
2023-04-03T22:01:39.820Z,43.96
2023-04-03T22:04:08.080Z,44.32
2023-04-03T22:06:37.516Z,44.15
2023-04-03T22:09:07.405Z,44.39
2023-04-03T22:11:38.391Z,44.55
2023-04-03T22:14:06.826Z,44.50
2023-04-03T22:16:35.639Z,44.39
2023-04-03T22:19:04.319Z,44.25
2023-04-03T22:21:33.739Z,44.36
2023-04-03T22:24:02.115Z,44.68
2023-04-03T22:26:32.093Z,44.61
2023-04-03T22:29:01.864Z,44.58
2023-04-03T22:31:30.247Z,44.20
2023-04-03T22:33:59.026Z,44.38
2023-04-03T22:36:27.358Z,44.60
2023-04-03T22:38:57.496Z,44.54
2023-04-03T22:41:25.883Z,44.14
2023-04-03T22:43:56.143Z,44.19
2023-04-03T22:46:26.063Z,43.77
2023-04-03T22:48:54.705Z,44.06
2023-04-03T22:51:23.044Z,44.12
2023-04-03T22:53:51.303Z,44.49
2023-04-03T22:56:19.933Z,44.42
2023-04-03T22:58:48.601Z,44.23
2023-04-03T23:01:20.342Z,44.04
2023-04-03T23:03:48.662Z,44.45
2023-04-03T23:06:17.047Z,44.35
2023-04-03T23:08:45.610Z,44.38
2023-04-03T23:11:13.937Z,44.76
2023-04-03T23:13:43.787Z,44.37
2023-04-03T23:16:12.296Z,44.70
2023-04-03T23:18:43.851Z,44.68
2023-04-03T23:21:12.237Z,44.61
2023-04-03T23:23:40.857Z,44.80
2023-04-03T23:26:10.002Z,45.01
2023-04-03T23:28:38.397Z,44.83
2023-04-03T23:31:07.878Z,44.63
2023-04-03T23:33:36.441Z,45.07
2023-04-03T23:36:09.807Z,45.28
2023-04-03T23:38:38.288Z,44.79
2023-04-03T23:41:06.776Z,45.35
2023-04-03T23:43:35.128Z,44.92
2023-04-03T23:46:03.614Z,45.13
2023-04-03T23:48:32.030Z,45.05
2023-04-03T23:51:00.335Z,45.29
2023-04-03T23:53:30.020Z,45.12
2023-04-03T23:55:58.664Z,45.28
2023-04-03T23:58:26.921Z,45.35
